Time;durP1;ratioP1;P1;durP2;ratioP2;P2;SDS_P1;SDS_P2;PMS_P1;PMS_P2;Temp;Humidity;BMP_temperature;BMP_pressure;BME280_temperature;BME280_humidity;BME280_pressure;Samples;Min_cycle;Max_cycle;Signal;HPM_P1;HPM_P2
2023/07/28 00:01:13;;;;;;;24.67;5.43;;;19.00;99.90;;;;;;5054103;28;20030;-67
2023/07/28 00:03:38;;;;;;;26.77;5.40;;;19.00;99.90;;;;;;5053977;28;20063;-67
2023/07/28 00:06:04;;;;;;;20.13;4.90;;;19.00;99.90;;;;;;5053906;28;20033;-67
2023/07/28 00:08:30;;;;;;;22.35;5.82;;;19.10;99.90;;;;;;5053915;28;20029;-68
2023/07/28 00:10:55;;;;;;;18.73;5.65;;;19.10;99.90;;;;;;5053985;28;20029;-68
2023/07/28 00:13:21;;;;;;;21.77;5.30;;;19.10;99.90;;;;;;5053657;28;20041;-68
2023/07/28 00:15:46;;;;;;;17.92;5.25;;;19.10;99.90;;;;;;5053156;28;20025;-68
2023/07/28 00:18:12;;;;;;;23.65;5.10;;;19.10;99.90;;;;;;5053609;28;20028;-67
2023/07/28 00:20:37;;;;;;;23.88;4.85;;;19.10;99.90;;;;;;5053425;28;20025;-68
2023/07/28 00:23:03;;;;;;;19.95;5.60;;;19.10;99.90;;;;;;5053208;28;20041;-68
2023/07/28 00:25:28;;;;;;;17.85;4.95;;;19.10;99.90;;;;;;5053678;28;20085;-67
2023/07/28 00:27:55;;;;;;;22.33;5.80;;;19.20;99.90;;;;;;5052881;28;20075;-67
2023/07/28 00:30:21;;;;;;;21.27;5.93;;;19.20;99.90;;;;;;5053579;28;20032;-67
2023/07/28 00:32:47;;;;;;;19.08;5.53;;;19.20;99.90;;;;;;5053605;28;20033;-68
2023/07/28 00:35:12;;;;;;;25.45;5.85;;;19.20;99.90;;;;;;5053124;28;20029;-67
2023/07/28 00:37:38;;;;;;;25.98;5.65;;;19.20;99.90;;;;;;5053366;28;20029;-67
2023/07/28 00:40:04;;;;;;;19.33;5.40;;;19.20;99.90;;;;;;5053440;28;20027;-67
2023/07/28 00:42:29;;;;;;;18.58;4.88;;;19.20;99.90;;;;;;5053438;28;20100;-67
2023/07/28 00:44:55;;;;;;;20.95;5.40;;;19.20;99.90;;;;;;5053237;28;20160;-68
2023/07/28 00:47:21;;;;;;;23.02;5.30;;;19.20;99.90;;;;;;5053247;28;20064;-68
2023/07/28 00:49:46;;;;;;;22.00;5.00;;;19.20;99.90;;;;;;5053024;28;20021;-68
2023/07/28 00:52:12;;;;;;;22.42;5.57;;;19.20;99.90;;;;;;5053092;28;20372;-66
2023/07/28 00:54:38;;;;;;;25.85;5.80;;;19.30;99.90;;;;;;5052598;28;20021;-67
2023/07/28 00:57:04;;;;;;;18.48;4.90;;;19.30;99.90;;;;;;5051530;28;20071;-67
2023/07/28 00:59:31;;;;;;;20.25;6.05;;;19.30;99.90;;;;;;5052523;28;20093;-67
2023/07/28 01:01:56;;;;;;;22.48;5.45;;;19.30;99.90;;;;;;5052455;28;20036;-66
2023/07/28 01:04:22;;;;;;;21.92;5.75;;;19.30;99.90;;;;;;5052343;28;20386;-68
2023/07/28 01:07:00;;;;;;;23.08;5.38;;;19.30;99.90;;;;;;5052035;28;20119;-67
2023/07/28 01:09:34;;;;;;;19.05;5.70;;;19.30;99.90;;;;;;5050294;28;20025;-67
2023/07/28 01:12:01;;;;;;;19.25;5.35;;;19.30;99.90;;;;;;5052212;28;20083;-68
2023/07/28 01:14:26;;;;;;;18.23;5.38;;;19.30;99.90;;;;;;5052230;28;20036;-66
2023/07/28 01:16:52;;;;;;;29.48;6.00;;;19.30;99.90;;;;;;5052059;28;20017;-67
2023/07/28 01:19:20;;;;;;;24.20;6.47;;;19.20;99.90;;;;;;5051869;28;20029;-66
2023/07/28 01:21:53;;;;;;;28.65;5.95;;;19.20;99.90;;;;;;5051871;28;20035;-67
2023/07/28 01:25:00;;;;;;;28.23;5.60;;;19.20;99.90;;;;;;5052050;28;20037;-66
2023/07/28 01:27:27;;;;;;;25.92;6.32;;;19.20;99.90;;;;;;5033710;28;20029;-68
2023/07/28 01:29:52;;;;;;;25.13;6.43;;;19.30;99.90;;;;;;5051827;28;20032;-67
2023/07/28 01:32:18;;;;;;;24.38;6.18;;;19.30;99.90;;;;;;5051954;28;20029;-67
2023/07/28 01:34:43;;;;;;;25.65;6.15;;;19.30;99.90;;;;;;5051800;28;20479;-67
2023/07/28 01:37:09;;;;;;;24.63;7.07;;;19.30;99.90;;;;;;5032722;28;20071;-67
2023/07/28 01:39:34;;;;;;;24.30;5.85;;;19.20;99.90;;;;;;5051569;28;20033;-67
2023/07/28 01:42:00;;;;;;;28.13;6.82;;;19.30;99.90;;;;;;5051706;28;20469;-67
2023/07/28 01:44:26;;;;;;;21.98;5.80;;;19.20;99.90;;;;;;5051947;28;20084;-68
2023/07/28 01:46:51;;;;;;;22.83;6.10;;;19.30;99.90;;;;;;5052086;28;20037;-67
2023/07/28 01:49:17;;;;;;;21.75;6.80;;;19.30;99.90;;;;;;5052694;28;20115;-68
2023/07/28 01:51:42;;;;;;;24.67;6.90;;;19.20;99.90;;;;;;5052338;28;20430;-67
2023/07/28 01:54:08;;;;;;;23.13;7.18;;;19.20;99.90;;;;;;5052078;28;20071;-67
2023/07/28 01:56:33;;;;;;;28.33;7.18;;;19.20;99.90;;;;;;5052492;28;20037;-68
2023/07/28 01:58:59;;;;;;;24.92;6.55;;;19.20;99.90;;;;;;5052452;28;20029;-67
2023/07/28 02:01:24;;;;;;;20.55;6.70;;;19.20;99.90;;;;;;5052127;28;20033;-67
2023/07/28 02:03:50;;;;;;;24.75;6.80;;;19.20;99.90;;;;;;5052256;28;20469;-67
2023/07/28 02:06:15;;;;;;;24.83;7.18;;;19.30;99.90;;;;;;5052092;28;20025;-67
2023/07/28 02:08:41;;;;;;;25.58;7.20;;;19.30;99.90;;;;;;5052305;28;20033;-67
2023/07/28 02:11:06;;;;;;;24.08;6.85;;;19.30;99.90;;;;;;5051912;28;20412;-66
2023/07/28 02:13:32;;;;;;;25.42;6.70;;;19.30;99.90;;;;;;5051937;28;20032;-67
2023/07/28 02:15:57;;;;;;;21.58;6.43;;;19.30;99.90;;;;;;5051852;28;20459;-67
2023/07/28 02:18:23;;;;;;;20.20;7.07;;;19.30;99.90;;;;;;5052090;28;20117;-67
2023/07/28 02:20:49;;;;;;;22.55;7.20;;;19.30;99.90;;;;;;5052069;28;20060;-66
2023/07/28 02:23:15;;;;;;;22.60;7.55;;;19.30;99.90;;;;;;5051788;28;20112;-67
2023/07/28 02:25:40;;;;;;;20.77;6.55;;;19.30;99.90;;;;;;5052172;28;20108;-67
2023/07/28 02:28:08;;;;;;;21.60;7.72;;;19.40;99.90;;;;;;5052036;28;20021;-67
2023/07/28 02:30:33;;;;;;;24.33;6.20;;;19.40;99.90;;;;;;5051998;28;20033;-68
2023/07/28 02:32:59;;;;;;;20.35;7.18;;;19.40;99.90;;;;;;5051850;28;20491;-67
2023/07/28 02:35:24;;;;;;;20.73;9.45;;;19.40;99.90;;;;;;5051859;28;20373;-67
2023/07/28 02:37:50;;;;;;;22.42;9.35;;;19.30;99.90;;;;;;5051937;28;20480;-67
2023/07/28 02:40:16;;;;;;;23.38;9.23;;;19.40;99.90;;;;;;5051460;28;20025;-67
2023/07/28 02:42:41;;;;;;;26.60;9.75;;;19.40;99.90;;;;;;5052130;28;20033;-67
2023/07/28 02:45:07;;;;;;;25.00;9.85;;;19.40;99.90;;;;;;5051695;28;20045;-67
2023/07/28 02:47:33;;;;;;;27.88;9.50;;;19.40;99.90;;;;;;5051909;28;20025;-68
2023/07/28 02:49:58;;;;;;;23.08;8.85;;;19.30;99.90;;;;;;5051722;28;20031;-67
2023/07/28 02:52:24;;;;;;;25.17;9.30;;;19.30;99.90;;;;;;5055304;28;20039;-67
2023/07/28 02:54:50;;;;;;;27.30;9.48;;;19.30;99.90;;;;;;5054960;28;20392;-66
2023/07/28 02:57:15;;;;;;;40.08;9.45;;;19.30;99.90;;;;;;5054982;28;20033;-67
2023/07/28 02:59:41;;;;;;;23.33;8.85;;;19.30;99.90;;;;;;5055371;28;20029;-67
2023/07/28 03:02:06;;;;;;;24.25;8.10;;;19.30;99.90;;;;;;5055054;28;20739;-66
2023/07/28 03:04:32;;;;;;;29.77;9.25;;;19.30;99.90;;;;;;5054978;28;20476;-67
2023/07/28 03:06:57;;;;;;;26.00;8.65;;;19.30;99.90;;;;;;5055073;28;20388;-68
2023/07/28 03:09:23;;;;;;;24.40;8.18;;;19.30;99.90;;;;;;5054882;28;20021;-67
2023/07/28 03:11:49;;;;;;;23.20;8.63;;;19.30;99.90;;;;;;5054929;28;20469;-67
2023/07/28 03:14:14;;;;;;;25.35;8.40;;;19.30;99.90;;;;;;5055012;28;20025;-67
2023/07/28 03:16:41;;;;;;;23.83;8.70;;;19.30;99.90;;;;;;5054923;28;20478;-66
2023/07/28 03:19:07;;;;;;;24.58;9.20;;;19.30;99.90;;;;;;5054996;28;20048;-68
2023/07/28 03:21:32;;;;;;;29.60;8.80;;;19.30;99.90;;;;;;5055040;28;20069;-67
2023/07/28 03:23:58;;;;;;;25.02;8.45;;;19.40;99.90;;;;;;5053201;28;20135;-67
2023/07/28 03:26:24;;;;;;;28.30;8.90;;;19.30;99.90;;;;;;5054746;28;20036;-67
2023/07/28 03:28:49;;;;;;;28.20;9.60;;;19.30;99.90;;;;;;5054680;28;20032;-67
2023/07/28 03:31:15;;;;;;;30.98;9.25;;;19.30;99.90;;;;;;5054488;28;20023;-67
2023/07/28 03:33:40;;;;;;;29.10;8.57;;;19.30;99.90;;;;;;5054494;28;20523;-68
2023/07/28 03:36:06;;;;;;;26.42;9.18;;;19.30;99.90;;;;;;5054433;28;20028;-67
2023/07/28 03:38:31;;;;;;;26.80;8.60;;;19.40;99.90;;;;;;5054644;28;20043;-66
2023/07/28 03:40:57;;;;;;;27.00;9.20;;;19.40;99.90;;;;;;5054164;28;20047;-67
2023/07/28 03:43:22;;;;;;;33.00;9.75;;;19.40;99.90;;;;;;5054498;28;20391;-68
2023/07/28 03:45:48;;;;;;;28.63;9.35;;;19.40;99.90;;;;;;5054609;28;20089;-68
2023/07/28 03:48:13;;;;;;;26.88;9.32;;;19.40;99.90;;;;;;5054417;28;20086;-67
2023/07/28 03:50:39;;;;;;;25.35;9.23;;;19.40;99.90;;;;;;5054467;28;20024;-67
2023/07/28 03:53:05;;;;;;;27.85;9.32;;;19.40;99.90;;;;;;5054671;28;20090;-68
2023/07/28 03:55:30;;;;;;;27.65;10.00;;;19.30;99.90;;;;;;5053947;28;20067;-68
2023/07/28 03:57:56;;;;;;;28.00;9.35;;;19.30;99.90;;;;;;5054330;28;20025;-67
2023/07/28 04:00:22;;;;;;;22.75;9.15;;;19.30;99.90;;;;;;5054175;28;20033;-67
2023/07/28 04:02:47;;;;;;;28.10;9.02;;;19.40;99.90;;;;;;5054120;28;20029;-67
2023/07/28 04:05:13;;;;;;;26.00;9.15;;;19.40;99.90;;;;;;5054227;28;20036;-67
2023/07/28 04:07:38;;;;;;;28.38;10.43;;;19.40;99.90;;;;;;5054125;28;20039;-66
2023/07/28 04:10:04;;;;;;;26.95;9.82;;;19.40;99.90;;;;;;5053779;28;20108;-67
2023/07/28 04:12:30;;;;;;;27.33;9.55;;;19.40;99.90;;;;;;5054193;28;20035;-67
2023/07/28 04:14:55;;;;;;;24.85;10.38;;;19.40;99.90;;;;;;5053876;28;20025;-68
2023/07/28 04:17:21;;;;;;;25.65;9.82;;;19.40;99.90;;;;;;5053759;28;20135;-67
2023/07/28 04:19:47;;;;;;;29.50;9.82;;;19.40;99.90;;;;;;5053588;28;20101;-68
2023/07/28 04:22:13;;;;;;;24.30;9.68;;;19.40;99.90;;;;;;5053409;28;20520;-68
2023/07/28 04:24:38;;;;;;;27.20;8.93;;;19.50;99.90;;;;;;5053426;28;20500;-67
2023/07/28 04:27:04;;;;;;;27.05;9.50;;;19.50;99.90;;;;;;5053661;28;20053;-67
2023/07/28 04:29:30;;;;;;;24.52;9.13;;;19.50;99.90;;;;;;5053267;28;20373;-67
2023/07/28 04:31:55;;;;;;;24.88;9.32;;;19.50;99.90;;;;;;5053395;28;20039;-67
2023/07/28 04:34:21;;;;;;;27.13;9.20;;;19.60;99.90;;;;;;5053505;28;20029;-68
2023/07/28 04:36:46;;;;;;;23.98;8.90;;;19.60;99.90;;;;;;5053954;28;20067;-68
2023/07/28 04:39:12;;;;;;;24.23;8.32;;;19.60;99.90;;;;;;5053674;28;20032;-68
2023/07/28 04:41:38;;;;;;;27.17;9.25;;;19.60;99.90;;;;;;5053515;28;20032;-68
2023/07/28 04:44:03;;;;;;;28.23;8.80;;;19.60;99.90;;;;;;5053095;28;20392;-69
2023/07/28 04:46:29;;;;;;;27.83;9.48;;;19.60;99.90;;;;;;5053422;28;20037;-68
2023/07/28 04:48:55;;;;;;;24.17;9.48;;;19.60;99.90;;;;;;5053185;28;20028;-67
2023/07/28 04:51:21;;;;;;;26.98;9.80;;;19.70;99.90;;;;;;5053288;28;20054;-67
2023/07/28 04:53:46;;;;;;;24.88;9.23;;;19.70;99.90;;;;;;5052683;28;20021;-66
2023/07/28 04:56:12;;;;;;;24.05;9.27;;;19.70;99.90;;;;;;5053248;28;20082;-67
2023/07/28 04:58:37;;;;;;;24.60;8.75;;;19.70;99.90;;;;;;5052878;28;20074;-68
2023/07/28 05:01:04;;;;;;;28.95;10.13;;;19.70;99.90;;;;;;5052882;28;20056;-68
2023/07/28 05:03:29;;;;;;;26.90;8.98;;;19.70;99.90;;;;;;5053012;28;20036;-66
2023/07/28 05:05:55;;;;;;;25.75;9.43;;;19.80;99.90;;;;;;5052959;28;20186;-68
2023/07/28 05:08:20;;;;;;;24.95;8.93;;;19.80;99.90;;;;;;5052898;28;20021;-67
2023/07/28 05:10:46;;;;;;;25.15;9.13;;;19.90;99.90;;;;;;5052798;28;20035;-67
2023/07/28 05:13:11;;;;;;;20.50;8.77;;;19.90;99.90;;;;;;5052664;28;20091;-67
2023/07/28 05:15:37;;;;;;;22.50;9.05;;;20.00;99.90;;;;;;5052528;28;20112;-67
2023/07/28 05:18:03;;;;;;;26.35;8.70;;;20.00;99.90;;;;;;5052327;28;20108;-68
2023/07/28 05:20:28;;;;;;;24.95;9.43;;;20.00;99.90;;;;;;5052689;28;20032;-67
2023/07/28 05:22:54;;;;;;;20.98;9.38;;;20.10;99.90;;;;;;5052718;28;20121;-67
2023/07/28 05:25:19;;;;;;;24.35;8.88;;;20.10;99.90;;;;;;5052472;28;20033;-69
2023/07/28 05:27:45;;;;;;;21.23;8.93;;;20.20;99.90;;;;;;5052952;28;20029;-68
2023/07/28 05:30:10;;;;;;;22.92;8.20;;;20.20;99.90;;;;;;5052525;28;20025;-67
2023/07/28 05:32:36;;;;;;;25.52;8.77;;;20.20;99.90;;;;;;5052297;28;20025;-67
2023/07/28 05:35:01;;;;;;;24.88;9.13;;;20.30;99.90;;;;;;5052228;28;20037;-69
2023/07/28 05:37:27;;;;;;;24.98;10.90;;;20.30;99.90;;;;;;5051953;28;20031;-67
2023/07/28 05:39:52;;;;;;;27.30;10.45;;;20.30;99.90;;;;;;5052702;28;20021;-67
2023/07/28 05:42:18;;;;;;;25.42;10.50;;;20.30;99.90;;;;;;5052409;28;20483;-68
2023/07/28 05:44:43;;;;;;;23.58;10.38;;;20.40;99.90;;;;;;5052385;28;20140;-68
2023/07/28 05:47:09;;;;;;;28.73;9.30;;;20.40;99.90;;;;;;5052696;28;20107;-68
2023/07/28 05:49:35;;;;;;;25.08;10.45;;;20.40;99.90;;;;;;5052675;28;20071;-68
2023/07/28 05:52:00;;;;;;;24.67;9.27;;;20.40;99.90;;;;;;5052231;28;20025;-68
2023/07/28 05:54:26;;;;;;;22.98;11.43;;;20.50;99.90;;;;;;5052334;28;20025;-69
2023/07/28 05:56:52;;;;;;;31.20;16.85;;;20.50;99.90;;;;;;5052338;28;20464;-68
2023/07/28 05:59:17;;;;;;;35.33;16.60;;;20.70;99.90;;;;;;5052469;28;20457;-67
2023/07/28 06:01:43;;;;;;;25.90;14.27;;;20.80;99.90;;;;;;5052624;28;20483;-68
2023/07/28 06:04:08;;;;;;;26.65;14.75;;;20.80;99.90;;;;;;5052050;28;20029;-67
2023/07/28 06:06:34;;;;;;;28.63;12.25;;;20.80;99.90;;;;;;5052131;28;20032;-68
2023/07/28 06:08:59;;;;;;;26.00;11.40;;;20.80;99.90;;;;;;5052832;28;20033;-68
2023/07/28 06:11:26;;;;;;;27.27;13.63;;;20.80;99.90;;;;;;5052251;28;20025;-68
2023/07/28 06:13:51;;;;;;;24.33;9.30;;;20.80;99.90;;;;;;5052208;28;20043;-69
2023/07/28 06:16:17;;;;;;;23.70;9.95;;;20.80;99.90;;;;;;5052328;28;20029;-67
2023/07/28 06:18:42;;;;;;;22.70;10.88;;;20.80;99.90;;;;;;5052140;28;20086;-66
2023/07/28 06:21:08;;;;;;;23.08;10.88;;;20.70;99.90;;;;;;5050386;28;20110;-67
2023/07/28 06:23:33;;;;;;;29.15;13.68;;;20.70;99.90;;;;;;5051910;28;20040;-69
2023/07/28 06:25:59;;;;;;;28.80;11.25;;;20.70;99.90;;;;;;5053308;28;20032;-68
2023/07/28 06:28:25;;;;;;;19.80;6.22;;;20.70;99.90;;;;;;5055855;28;20021;-69
2023/07/28 06:30:58;;;;;;;22.83;9.60;;;20.80;99.90;;;;;;5055795;28;20041;-67
2023/07/28 06:33:25;;;;;;;21.35;8.85;;;20.80;99.90;;;;;;5055904;28;20044;-68
2023/07/28 06:35:52;;;;;;;27.15;12.57;;;20.80;99.90;;;;;;5055829;28;20036;-68
2023/07/28 06:38:17;;;;;;;22.83;10.20;;;20.90;99.90;;;;;;5054688;28;20029;-68
2023/07/28 06:40:43;;;;;;;19.60;8.70;;;21.00;99.90;;;;;;5055800;28;20032;-69
2023/07/28 06:43:08;;;;;;;21.90;8.98;;;21.10;99.90;;;;;;5055835;28;20021;-67
2023/07/28 06:45:34;;;;;;;26.13;10.32;;;21.10;99.90;;;;;;5055267;28;20053;-69
2023/07/28 06:47:59;;;;;;;24.42;11.70;;;21.10;99.90;;;;;;5055974;28;20029;-68
2023/07/28 06:50:25;;;;;;;19.98;9.45;;;21.10;99.90;;;;;;5055119;28;20578;-68
2023/07/28 06:52:51;;;;;;;21.48;7.68;;;21.20;99.90;;;;;;5055200;28;20524;-67
2023/07/28 06:55:18;;;;;;;19.05;8.20;;;21.30;99.90;;;;;;5055387;28;20120;-68
2023/07/28 06:57:43;;;;;;;20.33;8.65;;;21.20;99.90;;;;;;5054059;28;20365;-68
2023/07/28 07:00:09;;;;;;;19.38;8.02;;;21.20;99.90;;;;;;5055577;28;20483;-69
2023/07/28 07:02:36;;;;;;;20.50;7.65;;;21.20;99.90;;;;;;5055239;28;20029;-70
2023/07/28 07:05:01;;;;;;;20.17;7.80;;;21.20;99.90;;;;;;5054796;28;20041;-68
2023/07/28 07:07:27;;;;;;;22.05;9.65;;;21.20;99.90;;;;;;5055115;28;20027;-69
2023/07/28 07:09:53;;;;;;;17.55;8.43;;;21.10;99.90;;;;;;5055298;28;20068;-69
2023/07/28 07:12:20;;;;;;;15.88;7.20;;;21.10;99.90;;;;;;5055184;28;20032;-69
2023/07/28 07:14:45;;;;;;;21.00;8.75;;;21.20;99.90;;;;;;5053477;28;20075;-69
2023/07/28 07:17:11;;;;;;;18.80;8.48;;;21.20;99.90;;;;;;5054431;28;20065;-70
2023/07/28 07:19:37;;;;;;;20.10;8.02;;;21.20;99.90;;;;;;5054154;28;20129;-66
2023/07/28 07:22:02;;;;;;;25.67;8.23;;;21.30;99.90;;;;;;5070313;28;20024;-67
2023/07/28 07:24:28;;;;;;;18.58;7.22;;;21.20;99.90;;;;;;5057627;28;20557;-67
2023/07/28 07:26:54;;;;;;;20.38;8.00;;;21.30;99.90;;;;;;5054456;28;20032;-68
2023/07/28 07:29:19;;;;;;;19.52;8.18;;;21.20;99.90;;;;;;5054927;28;20066;-69
2023/07/28 07:31:45;;;;;;;21.48;7.32;;;21.20;99.90;;;;;;5054531;28;20021;-68
2023/07/28 07:34:10;;;;;;;19.13;7.75;;;21.20;99.90;;;;;;5054865;28;20116;-68
2023/07/28 07:36:39;;;;;;;17.05;6.57;;;21.20;99.90;;;;;;5054324;28;20159;-67
2023/07/28 07:39:05;;;;;;;19.80;6.68;;;21.10;99.90;;;;;;5054439;28;20028;-69
2023/07/28 07:41:31;;;;;;;17.42;6.97;;;21.10;99.90;;;;;;5054980;28;20017;-67
2023/07/28 07:43:56;;;;;;;19.13;6.60;;;21.10;99.90;;;;;;5054449;28;20365;-67
2023/07/28 07:46:23;;;;;;;16.02;7.38;;;21.10;99.90;;;;;;5054720;28;20079;-67
2023/07/28 07:48:49;;;;;;;18.80;8.32;;;21.10;99.90;;;;;;5054285;28;20031;-69
2023/07/28 07:51:15;;;;;;;19.25;7.15;;;21.10;99.90;;;;;;5054280;28;20025;-69
2023/07/28 07:53:41;;;;;;;16.30;6.45;;;21.00;99.90;;;;;;5053476;28;20056;-69
2023/07/28 07:56:08;;;;;;;21.67;7.22;;;21.00;99.90;;;;;;5054031;28;20059;-67
2023/07/28 07:58:34;;;;;;;16.05;6.30;;;21.00;99.90;;;;;;5054015;28;20021;-69
2023/07/28 08:00:59;;;;;;;16.70;7.28;;;21.00;99.90;;;;;;5052996;28;20028;-69
2023/07/28 08:03:25;;;;;;;18.55;5.80;;;21.00;99.90;;;;;;5053053;28;20090;-68
2023/07/28 08:05:51;;;;;;;18.48;7.15;;;21.00;99.90;;;;;;5052776;28;20407;-68
2023/07/28 08:08:19;;;;;;;17.77;6.75;;;20.90;99.90;;;;;;5052635;28;20040;-68
2023/07/28 08:10:45;;;;;;;21.33;6.78;;;20.90;99.90;;;;;;5054097;28;20024;-67
2023/07/28 08:13:11;;;;;;;15.43;6.60;;;21.00;99.90;;;;;;5052274;28;20159;-67
2023/07/28 08:15:37;;;;;;;18.00;6.60;;;20.90;99.90;;;;;;5052533;28;20051;-68
2023/07/28 08:18:02;;;;;;;18.92;6.75;;;21.00;99.90;;;;;;5052020;28;20090;-68
2023/07/28 08:20:28;;;;;;;17.13;6.25;;;21.10;99.90;;;;;;5055212;28;20033;-68
2023/07/28 08:22:53;;;;;;;15.68;6.30;;;21.10;99.90;;;;;;5067228;28;20025;-68
2023/07/28 08:25:19;;;;;;;14.65;6.10;;;21.30;99.90;;;;;;5052053;28;20037;-69
2023/07/28 08:27:45;;;;;;;19.02;5.82;;;21.40;99.90;;;;;;5061250;28;20035;-68
2023/07/28 08:30:11;;;;;;;14.02;5.68;;;21.50;99.90;;;;;;5057861;28;20037;-69
2023/07/28 08:32:36;;;;;;;15.95;5.90;;;21.60;99.90;;;;;;5052627;28;20033;-68
2023/07/28 08:35:03;;;;;;;15.13;5.57;;;21.60;99.90;;;;;;5053238;28;20033;-68
2023/07/28 08:37:29;;;;;;;15.35;5.80;;;21.70;99.90;;;;;;5071681;28;20051;-68
2023/07/28 08:39:54;;;;;;;17.02;5.28;;;21.60;99.90;;;;;;5073251;28;20387;-67
2023/07/28 08:42:21;;;;;;;17.77;5.72;;;21.60;99.90;;;;;;5072267;28;20145;-68
2023/07/28 08:44:48;;;;;;;13.60;5.63;;;21.50;99.90;;;;;;5071620;28;20099;-69
2023/07/28 08:47:14;;;;;;;13.68;5.00;;;21.50;99.90;;;;;;5072973;28;20053;-67
2023/07/28 08:49:40;;;;;;;15.10;5.65;;;21.60;99.90;;;;;;5071666;28;20028;-69
2023/07/28 08:52:06;;;;;;;16.63;5.70;;;21.70;99.90;;;;;;5071718;28;20388;-68
2023/07/28 08:54:31;;;;;;;13.75;5.18;;;21.90;99.90;;;;;;5053756;28;20040;-67
2023/07/28 08:56:58;;;;;;;15.18;5.82;;;22.10;99.90;;;;;;5052338;28;20130;-68
2023/07/28 08:59:27;;;;;;;14.00;5.15;;;22.30;99.90;;;;;;5052015;28;20036;-68
2023/07/28 09:01:55;;;;;;;16.70;4.72;;;22.40;99.90;;;;;;5051750;28;20033;-70
2023/07/28 09:04:21;;;;;;;15.00;5.20;;;22.40;99.90;;;;;;5052614;28;20043;-68
2023/07/28 09:06:48;;;;;;;14.40;5.50;;;22.40;99.90;;;;;;5053145;28;20047;-70
2023/07/28 09:09:14;;;;;;;11.88;4.60;;;22.30;99.90;;;;;;5052276;28;20033;-67
2023/07/28 09:11:52;;;;;;;8.82;4.20;;;22.20;99.90;;;;;;5052759;28;20033;-68
2023/07/28 09:14:19;;;;;;;12.18;5.45;;;22.10;99.90;;;;;;5052375;28;20033;-71
2023/07/28 09:16:46;;;;;;;11.50;5.35;;;21.80;99.90;;;;;;5051660;28;20036;-70
2023/07/28 09:19:12;;;;;;;10.15;4.90;;;21.80;99.90;;;;;;5051160;28;20021;-69
2023/07/28 09:21:40;;;;;;;8.77;4.90;;;21.70;99.90;;;;;;5051661;28;20033;-70
2023/07/28 09:24:07;;;;;;;12.25;5.65;;;21.60;99.90;;;;;;5052704;28;20029;-69
2023/07/28 09:26:47;;;;;;;15.68;6.35;;;21.50;99.90;;;;;;5052377;28;20033;-69
2023/07/28 09:29:15;;;;;;;13.95;6.53;;;21.50;99.90;;;;;;5051581;28;20429;-69
2023/07/28 09:31:41;;;;;;;15.65;6.80;;;21.40;99.90;;;;;;5051858;28;20029;-68
2023/07/28 09:34:11;;;;;;;14.07;5.85;;;21.30;99.90;;;;;;5051234;28;20079;-68
2023/07/28 09:36:38;;;;;;;11.00;5.57;;;21.30;99.90;;;;;;5052941;28;20036;-68
2023/07/28 09:39:07;;;;;;;11.20;5.65;;;21.30;99.90;;;;;;5051368;28;20033;-69
2023/07/28 09:41:38;;;;;;;14.57;6.90;;;21.40;99.90;;;;;;5055879;28;20047;-68
2023/07/28 09:44:05;;;;;;;14.80;6.72;;;21.40;99.90;;;;;;5069291;28;20504;-69
2023/07/28 09:46:35;;;;;;;14.43;7.15;;;21.50;99.90;;;;;;5071815;28;20468;-68
2023/07/28 09:49:05;;;;;;;14.57;5.70;;;21.60;99.90;;;;;;5071783;28;20040;-68
2023/07/28 09:51:33;;;;;;;14.93;6.65;;;21.70;99.90;;;;;;5071470;28;20108;-69
2023/07/28 09:54:06;;;;;;;13.63;6.20;;;21.80;99.90;;;;;;5072598;28;20106;-68
2023/07/28 09:56:32;;;;;;;15.00;7.00;;;21.90;99.90;;;;;;5072354;28;20456;-70
2023/07/28 09:59:01;;;;;;;15.57;6.55;;;22.00;99.90;;;;;;5072192;28;20036;-68
2023/07/28 10:01:28;;;;;;;15.95;5.57;;;21.90;99.90;;;;;;5076064;28;20020;-67
2023/07/28 10:03:53;;;;;;;11.40;4.65;;;22.20;99.90;;;;;;5076258;28;20097;-69
2023/07/28 10:06:22;;;;;;;11.82;4.70;;;22.50;99.90;;;;;;5076416;28;20111;-69
2023/07/28 10:08:48;;;;;;;11.43;4.93;;;22.80;99.90;;;;;;5076458;28;20028;-68
2023/07/28 10:11:16;;;;;;;15.77;6.50;;;22.90;99.90;;;;;;5075208;28;20033;-68
2023/07/28 10:13:46;;;;;;;12.93;6.90;;;23.10;99.90;;;;;;5075621;28;20064;-68
2023/07/28 10:16:14;;;;;;;9.90;5.03;;;23.30;99.90;;;;;;5076113;28;20012;-68
2023/07/28 10:18:40;;;;;;;9.77;4.45;;;23.60;99.90;;;;;;5065589;28;20060;-70
2023/07/28 10:21:15;;;;;;;12.15;5.07;;;24.10;99.90;;;;;;5068000;28;20033;-68
2023/07/28 10:23:41;;;;;;;10.93;5.20;;;24.80;99.90;;;;;;5057956;28;20037;-69
2023/07/28 10:26:06;;;;;;;12.00;4.38;;;25.40;99.90;;;;;;5057444;28;20036;-70
2023/07/28 10:28:41;;;;;;;16.67;5.85;;;25.80;99.90;;;;;;5074750;28;20032;-68
2023/07/28 10:31:10;;;;;;;11.70;4.85;;;25.80;99.90;;;;;;5074634;28;20037;-68
2023/07/28 10:33:46;;;;;;;15.65;6.03;;;25.70;99.90;;;;;;5052235;28;20053;-68
2023/07/28 10:36:38;;;;;;;15.52;6.47;;;25.70;99.90;;;;;;5069222;28;20025;-68
2023/07/28 10:39:14;;;;;;;;;;;25.80;99.90;;;;;;5074140;28;20419;-68
2023/07/28 10:41:59;;;;;;;15.70;5.65;;;25.90;99.90;;;;;;5074446;28;20024;-68
2023/07/28 10:44:25;;;;;;;13.98;6.95;;;25.70;99.90;;;;;;5074289;28;20105;-68
2023/07/28 10:46:51;;;;;;;14.32;6.32;;;25.40;99.90;;;;;;5052707;28;20028;-68
2023/07/28 10:49:17;;;;;;;11.57;5.78;;;25.20;99.90;;;;;;5053714;28;20175;-69
2023/07/28 10:51:42;;;;;;;13.68;5.90;;;25.10;99.90;;;;;;5055972;28;20044;-69
2023/07/28 10:54:08;;;;;;;16.73;8.30;;;25.10;99.90;;;;;;5074398;28;20024;-69
2023/07/28 10:56:34;;;;;;;12.40;5.90;;;25.40;99.90;;;;;;5074197;28;20029;-70
2023/07/28 10:59:06;;;;;;;11.00;5.03;;;25.70;99.90;;;;;;5074612;28;20035;-68
2023/07/28 11:01:35;;;;;;;7.82;4.30;;;25.90;99.90;;;;;;5073410;28;20133;-69
2023/07/28 11:04:08;;;;;;;12.68;5.65;;;26.00;99.90;;;;;;5054940;28;20168;-69
2023/07/28 11:06:34;;;;;;;10.95;4.38;;;26.10;99.90;;;;;;5054457;28;20122;-68
2023/07/28 11:09:00;;;;;;;8.65;4.80;;;26.30;99.90;;;;;;5054072;28;20075;-68
2023/07/28 11:11:26;;;;;;;7.85;4.60;;;26.30;99.90;;;;;;5052510;28;20044;-69
2023/07/28 11:13:52;;;;;;;13.45;4.65;;;26.40;99.90;;;;;;5054349;28;20514;-69
2023/07/28 11:16:18;;;;;;;10.40;3.88;;;26.30;99.90;;;;;;5054514;28;20108;-68
2023/07/28 11:18:44;;;;;;;13.90;5.03;;;26.20;99.90;;;;;;5054985;28;20112;-68
2023/07/28 11:21:10;;;;;;;12.95;5.00;;;26.20;99.90;;;;;;5052725;28;20167;-68
2023/07/28 11:23:35;;;;;;;14.57;6.40;;;26.20;99.90;;;;;;5052213;28;20449;-67
2023/07/28 11:26:01;;;;;;;12.15;5.18;;;26.30;99.90;;;;;;5053240;28;20807;-69
2023/07/28 11:28:28;;;;;;;11.38;5.57;;;26.20;99.90;;;;;;5053918;28;20024;-70
2023/07/28 11:30:53;;;;;;;11.48;5.30;;;26.00;99.90;;;;;;5054506;28;20060;-69
2023/07/28 11:33:19;;;;;;;8.45;4.88;;;25.70;99.90;;;;;;5053467;28;20457;-69
2023/07/28 11:35:45;;;;;;;11.43;4.38;;;25.50;99.90;;;;;;5053780;28;20033;-66
2023/07/28 11:38:11;;;;;;;14.63;4.95;;;25.00;99.90;;;;;;5054384;28;20107;-70
2023/07/28 11:40:37;;;;;;;15.90;5.35;;;24.70;99.90;;;;;;5052973;28;20449;-69
2023/07/28 11:43:04;;;;;;;11.40;4.88;;;24.70;99.90;;;;;;5053837;28;20415;-69
2023/07/28 11:45:30;;;;;;;9.23;4.45;;;24.70;99.90;;;;;;5049843;28;20135;-68
2023/07/28 11:47:59;;;;;;;11.50;5.10;;;24.80;99.90;;;;;;5054354;28;20127;-68
2023/07/28 11:50:27;;;;;;;11.10;4.70;;;24.70;99.90;;;;;;5054177;28;20083;-67
2023/07/28 11:52:53;;;;;;;10.85;4.68;;;24.70;99.90;;;;;;5053896;28;20068;-67
2023/07/28 11:55:20;;;;;;;13.55;5.20;;;24.80;99.90;;;;;;5054125;28;20091;-68
2023/07/28 11:57:47;;;;;;;10.77;4.80;;;25.00;99.90;;;;;;5051985;28;20040;-69
2023/07/28 12:00:16;;;;;;;8.80;4.13;;;25.10;99.90;;;;;;5054451;28;20519;-70
2023/07/28 12:02:42;;;;;;;10.13;4.32;;;25.40;99.90;;;;;;5054111;28;20021;-69
2023/07/28 12:05:15;;;;;;;9.75;4.05;;;25.60;99.90;;;;;;5054014;28;20074;-67
2023/07/28 12:07:47;;;;;;;8.50;4.13;;;25.90;99.90;;;;;;5054272;28;20472;-69
2023/07/28 12:10:13;;;;;;;8.82;4.07;;;26.10;99.90;;;;;;5053555;28;20055;-68
2023/07/28 12:12:44;;;;;;;8.98;4.25;;;26.10;99.90;;;;;;5054165;28;20037;-67
2023/07/28 12:15:27;;;;;;;9.65;4.05;;;26.10;99.90;;;;;;5052982;28;20037;-70
2023/07/28 12:18:06;;;;;;;11.20;4.38;;;25.90;99.90;;;;;;5053944;28;20028;-69
2023/07/28 12:20:36;;;;;;;10.98;3.92;;;25.80;99.90;;;;;;5052968;28;20029;-67
2023/07/28 12:23:03;;;;;;;9.52;4.05;;;25.90;99.90;;;;;;5051750;28;20048;-67
2023/07/28 12:25:29;;;;;;;14.35;4.85;;;26.20;99.90;;;;;;5052691;28;20068;-68
2023/07/28 12:27:55;;;;;;;10.50;3.83;;;26.30;99.90;;;;;;5052575;28;20080;-69
2023/07/28 12:30:21;;;;;;;9.70;4.10;;;26.40;99.90;;;;;;5053934;28;20043;-68
2023/07/28 12:32:47;;;;;;;8.07;3.75;;;26.30;99.90;;;;;;5053782;28;20112;-69